createdAt,value
2023-04-13T00:02:18.628Z,7.79
2023-04-13T00:04:40.125Z,7.84
2023-04-13T00:07:03.625Z,7.78
2023-04-13T00:09:26.073Z,7.78
2023-04-13T00:11:49.102Z,7.61
2023-04-13T00:14:10.674Z,7.64
2023-04-13T00:16:32.410Z,7.71
2023-04-13T00:18:53.906Z,7.68
2023-04-13T00:21:16.996Z,7.68
2023-04-13T00:23:38.572Z,7.85
2023-04-13T00:26:01.530Z,7.92
2023-04-13T00:28:24.360Z,7.87
2023-04-13T00:30:45.909Z,7.72
2023-04-13T00:33:07.449Z,7.62
2023-04-13T00:35:28.958Z,7.71
2023-04-13T00:37:51.757Z,7.71
2023-04-13T00:40:14.079Z,7.53
2023-04-13T00:42:35.966Z,7.48
2023-04-13T00:44:57.467Z,7.47
2023-04-13T00:47:28.043Z,7.40
2023-04-13T00:49:49.622Z,7.25
2023-04-13T00:52:12.447Z,7.39
2023-04-13T00:54:35.697Z,7.52
2023-04-13T00:56:58.840Z,7.50
2023-04-13T00:59:21.040Z,7.43
2023-04-13T01:01:50.867Z,7.40
2023-04-13T01:04:14.104Z,7.35
2023-04-13T01:06:42.066Z,7.32
2023-04-13T01:09:11.404Z,7.24
2023-04-13T01:11:39.553Z,6.98
2023-04-13T01:14:13.157Z,7.12
2023-04-13T01:16:42.586Z,7.19
2023-04-13T01:19:06.567Z,7.11
2023-04-13T01:21:31.999Z,7.29
2023-04-13T01:24:17.801Z,7.05
2023-04-13T01:26:55.716Z,6.99
2023-04-13T01:29:18.253Z,6.96
2023-04-13T01:31:39.852Z,7.03
2023-04-13T01:34:01.512Z,7.00
2023-04-13T01:36:23.016Z,7.05
2023-04-13T01:38:44.488Z,7.12
2023-04-13T01:41:06.259Z,7.14
2023-04-13T01:43:28.040Z,7.26
2023-04-13T01:46:11.400Z,7.13
2023-04-13T01:48:35.763Z,7.08
2023-04-13T01:51:06.080Z,7.21
2023-04-13T01:53:35.796Z,7.17
2023-04-13T01:55:58.113Z,7.35
2023-04-13T01:58:21.358Z,7.22
2023-04-13T02:00:43.145Z,7.41
2023-04-13T02:03:06.425Z,7.41
2023-04-13T02:05:27.985Z,7.49
2023-04-13T02:07:49.495Z,7.42
2023-04-13T02:10:12.024Z,7.58
2023-04-13T02:12:34.325Z,7.56
2023-04-13T02:14:56.598Z,7.54
2023-04-13T02:17:18.704Z,7.56
2023-04-13T02:19:40.155Z,7.69
2023-04-13T02:22:02.122Z,7.74
2023-04-13T02:24:23.541Z,7.76
2023-04-13T02:26:45.011Z,7.74
2023-04-13T02:29:07.845Z,7.90
2023-04-13T02:31:31.933Z,7.87
2023-04-13T02:33:53.745Z,7.99
2023-04-13T02:36:17.580Z,7.98
2023-04-13T02:38:39.197Z,8.10
2023-04-13T02:41:01.292Z,8.09
2023-04-13T02:43:22.743Z,8.08
2023-04-13T02:45:44.255Z,8.08
2023-04-13T02:48:06.967Z,7.93
2023-04-13T02:50:28.443Z,7.99
2023-04-13T02:52:49.941Z,7.72
2023-04-13T02:55:11.722Z,7.56
2023-04-13T02:57:34.303Z,7.61
2023-04-13T02:59:55.754Z,7.60
2023-04-13T03:02:18.105Z,7.60
2023-04-13T03:04:39.924Z,7.61
2023-04-13T03:07:05.168Z,7.68
2023-04-13T03:09:26.631Z,7.80
2023-04-13T03:11:48.088Z,8.02
2023-04-13T03:14:13.225Z,7.91
2023-04-13T03:16:34.775Z,8.02
2023-04-13T03:18:56.270Z,7.96
2023-04-13T03:21:17.842Z,8.12
2023-04-13T03:23:39.314Z,8.30
2023-04-13T03:26:01.003Z,8.21
2023-04-13T03:28:22.544Z,8.24
2023-04-13T03:30:44.036Z,8.22
2023-04-13T03:33:05.558Z,8.28
2023-04-13T03:35:27.374Z,8.10
2023-04-13T03:37:48.824Z,8.18
2023-04-13T03:40:11.192Z,7.92
2023-04-13T03:42:32.846Z,7.86
2023-04-13T03:44:54.307Z,7.94
2023-04-13T03:47:15.750Z,7.86
2023-04-13T03:49:37.190Z,7.65
2023-04-13T03:51:58.993Z,7.48
2023-04-13T03:54:20.830Z,7.39
2023-04-13T03:56:42.377Z,7.39
2023-04-13T03:59:04.122Z,7.30
2023-04-13T04:01:25.753Z,7.29
2023-04-13T04:03:47.671Z,7.35
2023-04-13T04:06:10.184Z,7.12
2023-04-13T04:08:31.703Z,7.24
2023-04-13T04:10:53.179Z,7.30
2023-04-13T04:13:14.716Z,7.11
2023-04-13T04:15:36.195Z,6.90
2023-04-13T04:17:57.748Z,7.05
2023-04-13T04:20:19.302Z,7.20
2023-04-13T04:22:41.900Z,7.20
2023-04-13T04:25:04.547Z,7.16
2023-04-13T04:27:26.417Z,7.27
2023-04-13T04:29:49.502Z,7.14
2023-04-13T04:32:11.514Z,7.19
2023-04-13T04:34:33.153Z,7.14
2023-04-13T04:37:03.062Z,7.24
2023-04-13T04:39:26.702Z,7.30
2023-04-13T04:41:49.489Z,7.54
2023-04-13T04:44:11.756Z,7.61
2023-04-13T04:46:33.253Z,7.70
2023-04-13T04:48:54.692Z,7.69
2023-04-13T04:51:16.154Z,7.65
2023-04-13T04:53:37.641Z,7.84
2023-04-13T04:55:59.397Z,7.81
2023-04-13T04:58:20.918Z,7.79
2023-04-13T05:00:42.382Z,7.85
2023-04-13T05:03:03.854Z,7.81
2023-04-13T05:05:25.515Z,7.80
2023-04-13T05:07:46.976Z,7.74
2023-04-13T05:10:10.054Z,7.84
2023-04-13T05:12:31.489Z,7.81
2023-04-13T05:14:52.901Z,7.58
2023-04-13T05:17:18.247Z,7.61
2023-04-13T05:19:39.770Z,7.67
2023-04-13T05:22:02.066Z,7.81
2023-04-13T05:24:23.666Z,7.96
2023-04-13T05:26:45.337Z,8.05
2023-04-13T05:29:06.925Z,7.84
2023-04-13T05:31:28.866Z,7.89
2023-04-13T05:33:50.633Z,8.17
2023-04-13T05:36:12.320Z,8.31
2023-04-13T05:38:33.746Z,8.20
2023-04-13T05:40:55.241Z,8.48
2023-04-13T05:43:17.842Z,8.55
2023-04-13T05:45:39.315Z,8.36
2023-04-13T05:48:00.846Z,8.13
2023-04-13T05:50:22.348Z,8.17
2023-04-13T05:52:43.793Z,8.08
2023-04-13T05:55:06.854Z,8.13
2023-04-13T05:57:28.408Z,8.08
2023-04-13T05:59:50.951Z,8.04
2023-04-13T06:02:12.526Z,8.06
2023-04-13T06:04:34.912Z,7.87
2023-04-13T06:06:57.364Z,7.90
2023-04-13T06:09:19.181Z,7.83
2023-04-13T06:11:40.675Z,8.03
2023-04-13T06:14:03.111Z,7.92
2023-04-13T06:16:25.507Z,8.16
2023-04-13T06:18:46.953Z,8.28
2023-04-13T06:21:08.467Z,8.23
2023-04-13T06:23:29.935Z,8.40
2023-04-13T06:25:51.980Z,8.63
2023-04-13T06:28:13.475Z,8.78
2023-04-13T06:30:34.976Z,8.77
2023-04-13T06:32:56.769Z,9.18
2023-04-13T06:35:18.327Z,8.95
2023-04-13T06:37:39.863Z,9.09
2023-04-13T06:40:12.300Z,9.39
2023-04-13T06:42:33.755Z,9.40
2023-04-13T06:44:55.203Z,9.37
2023-04-13T06:47:16.698Z,9.82
2023-04-13T06:49:39.016Z,9.75
2023-04-13T06:52:00.752Z,9.79
2023-04-13T06:54:22.220Z,9.99
2023-04-13T06:56:43.682Z,9.89
2023-04-13T06:59:05.981Z,9.89
2023-04-13T07:01:28.475Z,9.93
2023-04-13T07:03:50.110Z,9.87
2023-04-13T07:06:11.685Z,9.77
2023-04-13T07:08:34.697Z,9.93
2023-04-13T07:10:57.590Z,10.00
2023-04-13T07:13:19.080Z,9.76
2023-04-13T07:15:40.652Z,9.59
2023-04-13T07:18:02.178Z,9.10
2023-04-13T07:20:23.813Z,8.95
2023-04-13T07:22:45.288Z,8.73
2023-04-13T07:25:07.429Z,8.62
2023-04-13T07:27:28.925Z,8.78
2023-04-13T07:29:55.303Z,8.80
2023-04-13T07:32:16.842Z,8.60
2023-04-13T07:34:38.324Z,8.71
2023-04-13T07:36:59.733Z,8.75
2023-04-13T07:39:21.770Z,8.85
2023-04-13T07:41:43.320Z,9.01
2023-04-13T07:44:05.475Z,8.95
2023-04-13T07:46:27.455Z,8.78
2023-04-13T07:48:48.973Z,9.11
2023-04-13T07:51:17.982Z,8.83
2023-04-13T07:53:39.435Z,9.30
2023-04-13T07:56:00.952Z,9.34
2023-04-13T07:58:22.401Z,9.26
2023-04-13T08:00:43.880Z,9.31
2023-04-13T08:03:07.113Z,9.25
2023-04-13T08:05:28.792Z,9.40
2023-04-13T08:07:50.643Z,9.62
2023-04-13T08:10:12.607Z,9.72
2023-04-13T08:12:34.086Z,9.60
2023-04-13T08:14:55.521Z,9.63
2023-04-13T08:17:16.985Z,9.95
2023-04-13T08:19:38.557Z,10.07
2023-04-13T08:21:59.984Z,10.15
2023-04-13T08:24:21.497Z,10.19
2023-04-13T08:26:42.983Z,10.30
2023-04-13T08:29:04.537Z,10.66
2023-04-13T08:31:26.040Z,10.64
2023-04-13T08:33:47.756Z,10.91
2023-04-13T08:36:09.464Z,10.93
2023-04-13T08:38:34.511Z,10.89
2023-04-13T08:40:57.358Z,10.65
2023-04-13T08:43:20.072Z,10.37
2023-04-13T08:45:44.827Z,10.09
2023-04-13T08:48:13.181Z,9.68
2023-04-13T08:50:34.746Z,9.42
2023-04-13T08:52:56.289Z,9.49
2023-04-13T08:55:17.951Z,9.56
2023-04-13T08:57:40.340Z,9.46
2023-04-13T09:00:08.153Z,9.51
2023-04-13T09:02:34.476Z,9.87
2023-04-13T09:05:00.258Z,10.05
2023-04-13T09:07:28.132Z,10.04
2023-04-13T09:09:51.417Z,9.74
2023-04-13T09:12:14.813Z,9.70
2023-04-13T09:14:38.350Z,9.92
2023-04-13T09:16:59.855Z,9.93
2023-04-13T09:19:31.771Z,10.14
2023-04-13T09:21:53.599Z,10.24
2023-04-13T09:24:15.337Z,10.58
2023-04-13T09:26:44.378Z,10.67
2023-04-13T09:29:06.067Z,10.74
2023-04-13T09:31:28.379Z,10.75
2023-04-13T09:33:52.462Z,11.16
2023-04-13T09:36:15.520Z,11.49
2023-04-13T09:38:36.991Z,11.56
2023-04-13T09:40:58.946Z,11.66
2023-04-13T09:43:20.572Z,11.82
2023-04-13T09:45:46.385Z,12.18
2023-04-13T09:48:21.657Z,12.65
2023-04-13T09:50:43.631Z,12.85
2023-04-13T09:53:07.191Z,12.74
2023-04-13T09:55:29.547Z,12.68
2023-04-13T09:57:52.538Z,12.72
2023-04-13T10:00:20.969Z,13.08
2023-04-13T10:02:42.780Z,13.03
2023-04-13T10:05:05.852Z,13.25
2023-04-13T10:07:30.119Z,13.68
2023-04-13T10:09:53.804Z,13.55
2023-04-13T10:12:17.070Z,13.59
2023-04-13T10:14:40.866Z,13.90
2023-04-13T10:17:31.598Z,13.78
2023-04-13T10:19:55.788Z,13.28
2023-04-13T10:22:20.215Z,13.31
2023-04-13T10:24:42.269Z,12.84
2023-04-13T10:27:18.348Z,12.86
2023-04-13T10:29:39.811Z,13.22
2023-04-13T10:32:04.043Z,13.55
2023-04-13T10:34:30.955Z,13.40
2023-04-13T10:36:56.089Z,13.25
2023-04-13T10:39:29.260Z,12.88
2023-04-13T10:42:12.923Z,12.77
2023-04-13T10:44:51.311Z,12.80
2023-04-13T10:47:14.209Z,12.19
2023-04-13T10:49:36.568Z,12.43
2023-04-13T10:51:58.035Z,13.06
2023-04-13T10:54:19.648Z,12.93
2023-04-13T10:56:41.193Z,13.07
2023-04-13T10:59:02.808Z,12.40
2023-04-13T11:01:24.537Z,12.50
2023-04-13T11:04:00.810Z,12.63
2023-04-13T11:06:27.163Z,12.55
2023-04-13T11:08:48.768Z,12.68
2023-04-13T11:11:14.875Z,12.63
2023-04-13T11:13:44.802Z,12.29
2023-04-13T11:16:06.836Z,12.19
2023-04-13T11:18:28.371Z,12.70
2023-04-13T11:20:51.182Z,12.71
2023-04-13T11:23:18.599Z,12.82
2023-04-13T11:25:52.367Z,12.90
2023-04-13T11:28:14.717Z,12.90
2023-04-13T11:30:36.172Z,12.99
2023-04-13T11:33:01.022Z,13.28
2023-04-13T11:35:23.443Z,13.54
2023-04-13T11:37:53.035Z,13.53
2023-04-13T11:40:21.453Z,13.07
2023-04-13T11:42:50.532Z,12.55
2023-04-13T11:45:14.865Z,13.01
2023-04-13T11:47:36.712Z,13.11
2023-04-13T11:49:58.918Z,13.65
2023-04-13T11:52:20.758Z,14.24
2023-04-13T11:54:44.684Z,13.96
2023-04-13T11:57:06.292Z,14.06
2023-04-13T11:59:27.959Z,13.88
2023-04-13T12:01:53.190Z,14.29
2023-04-13T12:04:19.852Z,13.88
2023-04-13T12:06:42.662Z,14.34
2023-04-13T12:09:10.854Z,14.23
2023-04-13T12:11:44.258Z,14.12
2023-04-13T12:14:11.989Z,14.29
2023-04-13T12:17:02.941Z,14.34
2023-04-13T12:19:23.488Z,14.64
2023-04-13T12:21:55.854Z,15.04
2023-04-13T12:24:18.915Z,16.18
2023-04-13T12:27:17.135Z,17.01
2023-04-13T12:29:23.480Z,16.67
2023-04-13T12:31:45.594Z,16.71
2023-04-13T12:34:08.133Z,15.73
2023-04-13T12:36:31.707Z,16.00
2023-04-13T12:38:53.182Z,15.92
2023-04-13T12:41:14.657Z,15.44
2023-04-13T12:43:36.517Z,14.52
2023-04-13T12:45:57.996Z,15.25
2023-04-13T12:48:19.697Z,16.65
2023-04-13T12:50:41.187Z,17.69
2023-04-13T12:53:03.749Z,18.81
2023-04-13T12:55:25.278Z,20.53
2023-04-13T12:57:46.760Z,19.44
2023-04-13T13:00:12.654Z,20.40
2023-04-13T13:02:34.241Z,20.01
2023-04-13T13:04:57.225Z,19.70
2023-04-13T13:07:19.326Z,18.84
2023-04-13T13:09:42.452Z,19.46
2023-04-13T13:12:04.587Z,19.98
2023-04-13T13:14:26.100Z,19.03
2023-04-13T13:16:50.089Z,19.73
2023-04-13T13:19:11.775Z,20.37
2023-04-13T13:21:33.231Z,20.86
2023-04-13T13:23:54.662Z,20.86
2023-04-13T13:28:40.781Z,22.62
2023-04-13T13:31:02.235Z,21.82
2023-04-13T13:33:23.726Z,20.64
2023-04-13T13:35:45.261Z,20.52
2023-04-13T13:38:06.706Z,19.64
2023-04-13T13:40:28.601Z,18.64
2023-04-13T13:42:52.253Z,17.57
2023-04-13T13:45:14.202Z,16.89
2023-04-13T13:47:35.741Z,16.14
2023-04-13T13:49:57.295Z,15.04
2023-04-13T13:52:18.783Z,14.08
2023-04-13T13:54:40.355Z,13.64
2023-04-13T13:57:01.958Z,13.08
2023-04-13T13:59:23.477Z,13.52
2023-04-13T14:01:45.153Z,13.88
2023-04-13T14:04:06.964Z,14.24
2023-04-13T14:06:28.617Z,14.45
2023-04-13T14:08:50.109Z,14.93
2023-04-13T14:11:12.469Z,14.73
2023-04-13T14:13:33.950Z,14.53
2023-04-13T14:15:56.399Z,14.54
2023-04-13T14:18:17.965Z,15.04
2023-04-13T14:20:40.225Z,15.74
2023-04-13T14:23:02.040Z,16.38
2023-04-13T14:25:23.523Z,17.05
2023-04-13T14:27:45.014Z,16.23
2023-04-13T14:30:07.144Z,15.58
2023-04-13T14:32:29.134Z,15.48
2023-04-13T14:34:50.666Z,15.81
2023-04-13T14:37:13.261Z,15.70
2023-04-13T14:39:34.758Z,15.35
2023-04-13T14:41:56.818Z,15.09
2023-04-13T14:44:18.314Z,14.48
2023-04-13T14:46:39.825Z,13.77
2023-04-13T14:49:01.456Z,12.90
2023-04-13T14:51:23.075Z,12.66
2023-04-13T14:53:44.598Z,12.13
2023-04-13T14:56:06.227Z,12.19
2023-04-13T14:58:27.674Z,12.08
2023-04-13T15:00:49.730Z,12.24
2023-04-13T15:03:12.979Z,12.24
2023-04-13T15:05:39.806Z,12.16
2023-04-13T15:08:02.426Z,12.28
2023-04-13T15:10:23.901Z,12.32
2023-04-13T15:12:45.413Z,11.99
2023-04-13T15:15:07.658Z,12.31
2023-04-13T15:17:29.891Z,12.33
2023-04-13T15:19:51.442Z,12.42
2023-04-13T15:22:13.102Z,12.80
2023-04-13T15:24:34.608Z,13.41
2023-04-13T15:26:56.098Z,13.63
2023-04-13T15:29:17.586Z,13.75
2023-04-13T15:31:39.194Z,14.00
2023-04-13T15:34:01.276Z,14.22
2023-04-13T15:36:22.743Z,13.74
2023-04-13T15:38:44.352Z,13.22
2023-04-13T15:41:09.152Z,12.93
2023-04-13T15:43:30.774Z,12.76
2023-04-13T15:45:52.363Z,12.59
2023-04-13T15:48:14.525Z,12.28
2023-04-13T15:50:36.259Z,11.94
2023-04-13T15:52:58.001Z,12.02
2023-04-13T15:55:20.272Z,12.14
2023-04-13T15:57:41.723Z,11.84
2023-04-13T16:00:08.654Z,11.79
2023-04-13T16:02:30.656Z,11.59
2023-04-13T16:04:53.947Z,11.60
2023-04-13T16:07:15.659Z,11.68
2023-04-13T16:09:37.190Z,11.33
2023-04-13T16:11:58.653Z,11.49
2023-04-13T16:14:20.347Z,11.24
2023-04-13T16:16:46.653Z,11.33
2023-04-13T16:19:08.156Z,11.45
2023-04-13T16:21:30.264Z,11.53
2023-04-13T16:23:52.405Z,11.50
2023-04-13T16:26:14.061Z,11.43
2023-04-13T16:28:36.846Z,11.63
2023-04-13T16:30:59.017Z,11.56
2023-04-13T16:33:20.597Z,11.28
2023-04-13T16:35:42.085Z,11.32
2023-04-13T16:38:03.553Z,11.63
2023-04-13T16:40:25.057Z,11.64
2023-04-13T16:42:46.723Z,11.50
2023-04-13T16:45:12.268Z,11.38
2023-04-13T16:47:39.918Z,11.49
2023-04-13T16:50:01.785Z,11.31
2023-04-13T16:52:23.309Z,11.51
2023-04-13T16:54:44.820Z,11.64
2023-04-13T16:57:06.553Z,11.73
2023-04-13T16:59:28.109Z,11.66
2023-04-13T17:01:49.602Z,11.68
2023-04-13T17:04:11.488Z,11.74
2023-04-13T17:06:37.241Z,11.94
2023-04-13T17:08:59.057Z,11.94
2023-04-13T17:11:20.779Z,11.79
2023-04-13T17:13:42.396Z,11.58
2023-04-13T17:16:04.330Z,11.44
2023-04-13T17:18:25.892Z,11.27
2023-04-13T17:20:54.773Z,11.03
2023-04-13T17:23:16.246Z,11.11
2023-04-13T17:25:41.480Z,10.98
2023-04-13T17:28:03.389Z,10.88
2023-04-13T17:30:24.814Z,11.18
2023-04-13T17:32:46.363Z,11.49
2023-04-13T17:35:08.121Z,11.68
2023-04-13T17:37:29.617Z,11.89
2023-04-13T17:39:51.504Z,11.81
2023-04-13T17:42:15.822Z,11.68
2023-04-13T17:44:37.348Z,11.69
2023-04-13T17:46:58.851Z,11.60
2023-04-13T17:49:22.182Z,11.69
2023-04-13T17:51:47.990Z,11.84
2023-04-13T17:54:09.469Z,11.92
2023-04-13T17:56:30.950Z,12.04
2023-04-13T17:58:52.489Z,12.11
2023-04-13T18:01:14.050Z,12.18
2023-04-13T18:03:35.840Z,12.14
2023-04-13T18:05:57.714Z,12.18
2023-04-13T18:08:19.157Z,12.20
2023-04-13T18:10:40.852Z,12.17
2023-04-13T18:13:02.368Z,12.05
2023-04-13T18:15:23.853Z,11.96
2023-04-13T18:17:45.950Z,11.90
2023-04-13T18:20:09.001Z,11.92
2023-04-13T18:22:32.066Z,11.80
2023-04-13T18:24:53.959Z,11.70
2023-04-13T18:27:15.512Z,11.60
2023-04-13T18:29:37.023Z,11.52
2023-04-13T18:31:58.597Z,11.46
2023-04-13T18:34:20.064Z,11.40
2023-04-13T18:36:42.240Z,11.16
2023-04-13T18:39:04.227Z,10.84
2023-04-13T18:41:25.736Z,10.90
2023-04-13T18:43:47.195Z,10.83
2023-04-13T18:46:08.919Z,10.77
2023-04-13T18:48:31.550Z,10.73
2023-04-13T18:50:53.234Z,10.67
2023-04-13T18:53:14.850Z,10.62
2023-04-13T18:55:36.331Z,10.60
2023-04-13T18:57:58.006Z,10.51
2023-04-13T19:00:19.608Z,10.47
2023-04-13T19:02:42.280Z,10.43
2023-04-13T19:05:04.194Z,10.39
2023-04-13T19:07:27.774Z,10.20
2023-04-13T19:09:49.234Z,10.21
2023-04-13T19:12:10.916Z,10.17
2023-04-13T19:14:32.791Z,10.13
2023-04-13T19:16:54.696Z,10.10
2023-04-13T19:19:17.413Z,10.03
2023-04-13T19:21:38.862Z,9.95
2023-04-13T19:24:00.609Z,9.86
2023-04-13T19:26:22.263Z,9.56
2023-04-13T19:28:43.698Z,9.43
2023-04-13T19:31:05.155Z,9.36
2023-04-13T19:33:26.686Z,9.45
2023-04-13T19:35:48.205Z,9.49
2023-04-13T19:38:09.955Z,9.53
2023-04-13T19:40:31.523Z,9.55
2023-04-13T19:42:53.190Z,9.62
2023-04-13T19:45:15.015Z,9.59
2023-04-13T19:47:37.857Z,9.61
2023-04-13T19:49:59.834Z,9.57
2023-04-13T19:52:21.306Z,9.55
2023-04-13T19:54:43.883Z,9.57
2023-04-13T19:57:06.006Z,9.58
2023-04-13T19:59:27.444Z,9.57
2023-04-13T20:01:49.281Z,9.59
2023-04-13T20:04:11.556Z,9.60
2023-04-13T20:06:33.377Z,9.60
2023-04-13T20:08:54.900Z,9.48
2023-04-13T20:11:16.428Z,9.31
2023-04-13T20:13:39.179Z,9.41
2023-04-13T20:16:00.715Z,9.38
2023-04-13T20:18:22.235Z,9.39
2023-04-13T20:20:44.297Z,9.37
2023-04-13T20:23:05.771Z,9.38
2023-04-13T20:25:27.203Z,9.40
2023-04-13T20:27:48.631Z,9.41
2023-04-13T20:30:10.958Z,9.26
2023-04-13T20:32:32.501Z,9.16
2023-04-13T20:34:55.402Z,9.24
2023-04-13T20:37:18.526Z,9.29
2023-04-13T20:39:52.606Z,9.27
2023-04-13T20:42:14.191Z,9.11
2023-04-13T20:44:38.128Z,9.14
2023-04-13T20:46:59.695Z,9.16
2023-04-13T20:49:23.301Z,9.20
2023-04-13T20:51:44.788Z,9.17
2023-04-13T20:54:06.300Z,9.16
2023-04-13T20:56:27.774Z,9.22
2023-04-13T20:58:49.516Z,9.13
2023-04-13T21:01:11.038Z,9.08
2023-04-13T21:03:32.897Z,9.03
2023-04-13T21:05:54.573Z,8.99
2023-04-13T21:08:16.074Z,8.97
2023-04-13T21:10:37.545Z,8.91
2023-04-13T21:12:59.078Z,8.93
2023-04-13T21:15:20.925Z,8.86
2023-04-13T21:17:42.415Z,8.79
2023-04-13T21:20:06.552Z,8.61
2023-04-13T21:22:28.000Z,8.55
2023-04-13T21:24:49.437Z,8.55
2023-04-13T21:27:11.082Z,8.47
2023-04-13T21:29:32.555Z,8.48
2023-04-13T21:31:54.087Z,8.24
2023-04-13T21:34:16.794Z,8.27
2023-04-13T21:39:02.899Z,8.14
2023-04-13T21:41:24.484Z,8.18
2023-04-13T21:43:46.253Z,8.13
2023-04-13T21:46:07.744Z,8.11
2023-04-13T21:48:29.184Z,8.07
2023-04-13T21:50:52.047Z,7.88
2023-04-13T21:53:13.510Z,7.84
2023-04-13T21:55:34.982Z,7.63
2023-04-13T21:57:56.707Z,7.57
2023-04-13T22:00:18.347Z,7.41
2023-04-13T22:02:40.530Z,7.29
2023-04-13T22:05:02.241Z,7.36
2023-04-13T22:07:31.770Z,7.38
2023-04-13T22:10:03.884Z,7.39
2023-04-13T22:12:25.317Z,7.36
2023-04-13T22:14:46.779Z,7.38
2023-04-13T22:17:08.205Z,7.34
2023-04-13T22:19:29.691Z,7.32
2023-04-13T22:21:51.097Z,7.29
2023-04-13T22:24:13.255Z,7.00
2023-04-13T22:26:34.694Z,6.84
2023-04-13T22:28:56.274Z,6.88
2023-04-13T22:31:17.729Z,6.94
2023-04-13T22:33:40.462Z,6.79
2023-04-13T22:36:05.796Z,6.75
2023-04-13T22:38:27.241Z,6.65
2023-04-13T22:40:48.726Z,6.53
2023-04-13T22:43:10.280Z,6.52
2023-04-13T22:45:31.857Z,6.50
2023-04-13T22:47:53.818Z,6.52
2023-04-13T22:50:15.372Z,6.55
2023-04-13T22:52:36.794Z,6.52
2023-04-13T22:54:58.338Z,6.53
2023-04-13T22:57:20.297Z,6.47
2023-04-13T22:59:41.839Z,6.23
2023-04-13T23:02:04.041Z,6.24
2023-04-13T23:04:25.624Z,6.28
2023-04-13T23:06:47.153Z,6.24
2023-04-13T23:09:08.601Z,6.12
2023-04-13T23:11:30.063Z,6.12
2023-04-13T23:13:55.094Z,6.14
2023-04-13T23:16:16.539Z,6.14
2023-04-13T23:18:37.986Z,6.03
2023-04-13T23:20:59.417Z,5.97
2023-04-13T23:23:20.995Z,6.03
2023-04-13T23:25:42.493Z,6.05
2023-04-13T23:28:03.972Z,5.94
2023-04-13T23:30:25.437Z,5.98
2023-04-13T23:32:46.933Z,5.77
2023-04-13T23:35:08.860Z,5.88
2023-04-13T23:37:30.422Z,5.92
2023-04-13T23:39:51.874Z,5.94
2023-04-13T23:42:13.350Z,5.96
2023-04-13T23:44:34.786Z,5.77
2023-04-13T23:46:56.582Z,5.79
2023-04-13T23:49:18.299Z,5.67
2023-04-13T23:51:39.704Z,5.65
2023-04-13T23:54:01.413Z,5.77
2023-04-13T23:56:22.903Z,5.75
2023-04-13T23:58:44.364Z,5.76
